sensor_id;sensor_type;location;lat;lon;timestamp;P1;durP1;ratioP1;P2;durP2;ratioP2
8040;SDS011;4063;48.140;10.250;2023-06-26T00:00:31;11.55;;;10.55;;
8040;SDS011;4063;48.140;10.250;2023-06-26T00:02:57;11.02;;;10.02;;
8040;SDS011;4063;48.140;10.250;2023-06-26T00:05:23;10.70;;;9.60;;
8040;SDS011;4063;48.140;10.250;2023-06-26T00:07:49;11.98;;;10.45;;
8040;SDS011;4063;48.140;10.250;2023-06-26T00:10:15;10.95;;;9.85;;
8040;SDS011;4063;48.140;10.250;2023-06-26T00:12:41;12.60;;;10.88;;
8040;SDS011;4063;48.140;10.250;2023-06-26T00:15:07;11.18;;;10.20;;
8040;SDS011;4063;48.140;10.250;2023-06-26T00:17:33;11.02;;;10.02;;
8040;SDS011;4063;48.140;10.250;2023-06-26T00:20:02;11.85;;;10.68;;
8040;SDS011;4063;48.140;10.250;2023-06-26T00:22:30;11.73;;;10.73;;
8040;SDS011;4063;48.140;10.250;2023-06-26T00:24:56;11.73;;;10.73;;
8040;SDS011;4063;48.140;10.250;2023-06-26T00:27:22;11.60;;;10.60;;
8040;SDS011;4063;48.140;10.250;2023-06-26T00:29:48;11.88;;;10.68;;
8040;SDS011;4063;48.140;10.250;2023-06-26T00:32:14;11.57;;;10.57;;
8040;SDS011;4063;48.140;10.250;2023-06-26T00:34:40;11.10;;;10.10;;
8040;SDS011;4063;48.140;10.250;2023-06-26T00:37:06;10.85;;;9.75;;
8040;SDS011;4063;48.140;10.250;2023-06-26T00:39:32;11.93;;;10.93;;
8040;SDS011;4063;48.140;10.250;2023-06-26T00:41:58;11.52;;;10.40;;
8040;SDS011;4063;48.140;10.250;2023-06-26T00:44:24;11.13;;;10.18;;
8040;SDS011;4063;48.140;10.250;2023-06-26T00:46:50;11.13;;;10.13;;
8040;SDS011;4063;48.140;10.250;2023-06-26T00:49:16;10.82;;;9.93;;
8040;SDS011;4063;48.140;10.250;2023-06-26T00:51:43;12.18;;;10.98;;
8040;SDS011;4063;48.140;10.250;2023-06-26T00:54:09;12.43;;;10.75;;
8040;SDS011;4063;48.140;10.250;2023-06-26T00:56:35;13.13;;;10.32;;
8040;SDS011;4063;48.140;10.250;2023-06-26T00:59:01;11.90;;;10.68;;
8040;SDS011;4063;48.140;10.250;2023-06-26T01:01:27;11.95;;;10.93;;
8040;SDS011;4063;48.140;10.250;2023-06-26T01:03:54;12.30;;;11.00;;
8040;SDS011;4063;48.140;10.250;2023-06-26T01:06:22;11.65;;;10.55;;
8040;SDS011;4063;48.140;10.250;2023-06-26T01:08:49;12.68;;;10.43;;
8040;SDS011;4063;48.140;10.250;2023-06-26T01:11:16;12.10;;;10.38;;
8040;SDS011;4063;48.140;10.250;2023-06-26T01:13:42;12.65;;;11.45;;
8040;SDS011;4063;48.140;10.250;2023-06-26T01:16:11;11.93;;;10.77;;
8040;SDS011;4063;48.140;10.250;2023-06-26T01:18:38;11.75;;;10.65;;
8040;SDS011;4063;48.140;10.250;2023-06-26T01:21:08;14.65;;;11.70;;
8040;SDS011;4063;48.140;10.250;2023-06-26T01:23:39;12.20;;;11.10;;
8040;SDS011;4063;48.140;10.250;2023-06-26T01:26:22;12.60;;;11.40;;
8040;SDS011;4063;48.140;10.250;2023-06-26T01:28:51;12.90;;;11.70;;
8040;SDS011;4063;48.140;10.250;2023-06-26T01:31:18;12.55;;;11.35;;
8040;SDS011;4063;48.140;10.250;2023-06-26T01:33:45;12.73;;;11.43;;
8040;SDS011;4063;48.140;10.250;2023-06-26T01:36:11;12.75;;;11.65;;
8040;SDS011;4063;48.140;10.250;2023-06-26T01:38:37;11.55;;;10.55;;
8040;SDS011;4063;48.140;10.250;2023-06-26T01:41:04;12.73;;;10.90;;
8040;SDS011;4063;48.140;10.250;2023-06-26T01:46:06;11.57;;;10.50;;
8040;SDS011;4063;48.140;10.250;2023-06-26T01:51:23;12.35;;;11.07;;
8040;SDS011;4063;48.140;10.250;2023-06-26T01:53:52;11.68;;;10.68;;
8040;SDS011;4063;48.140;10.250;2023-06-26T01:56:19;12.23;;;11.13;;
8040;SDS011;4063;48.140;10.250;2023-06-26T01:58:47;11.93;;;10.70;;
8040;SDS011;4063;48.140;10.250;2023-06-26T02:01:13;12.00;;;11.00;;
8040;SDS011;4063;48.140;10.250;2023-06-26T02:03:39;13.05;;;11.57;;
8040;SDS011;4063;48.140;10.250;2023-06-26T02:06:05;12.50;;;11.30;;
8040;SDS011;4063;48.140;10.250;2023-06-26T02:08:31;12.30;;;11.18;;
8040;SDS011;4063;48.140;10.250;2023-06-26T02:10:57;12.77;;;11.57;;
8040;SDS011;4063;48.140;10.250;2023-06-26T02:13:23;12.30;;;11.05;;
8040;SDS011;4063;48.140;10.250;2023-06-26T02:15:49;12.25;;;11.02;;
8040;SDS011;4063;48.140;10.250;2023-06-26T02:18:15;12.93;;;11.70;;
8040;SDS011;4063;48.140;10.250;2023-06-26T02:20:42;12.63;;;11.43;;
8040;SDS011;4063;48.140;10.250;2023-06-26T02:23:09;12.50;;;11.45;;
8040;SDS011;4063;48.140;10.250;2023-06-26T02:25:35;12.75;;;11.65;;
8040;SDS011;4063;48.140;10.250;2023-06-26T02:28:01;12.27;;;11.20;;
8040;SDS011;4063;48.140;10.250;2023-06-26T02:30:27;11.85;;;10.75;;
8040;SDS011;4063;48.140;10.250;2023-06-26T02:32:53;12.93;;;11.63;;
8040;SDS011;4063;48.140;10.250;2023-06-26T02:35:19;12.45;;;11.32;;
8040;SDS011;4063;48.140;10.250;2023-06-26T02:37:45;13.35;;;11.95;;
8040;SDS011;4063;48.140;10.250;2023-06-26T02:40:11;12.05;;;10.95;;
8040;SDS011;4063;48.140;10.250;2023-06-26T02:42:37;11.93;;;10.82;;
8040;SDS011;4063;48.140;10.250;2023-06-26T02:45:03;12.52;;;11.32;;
8040;SDS011;4063;48.140;10.250;2023-06-26T02:47:29;12.63;;;11.32;;
8040;SDS011;4063;48.140;10.250;2023-06-26T02:49:55;12.32;;;11.18;;
8040;SDS011;4063;48.140;10.250;2023-06-26T02:52:21;13.88;;;12.50;;
8040;SDS011;4063;48.140;10.250;2023-06-26T02:54:47;13.98;;;11.25;;
8040;SDS011;4063;48.140;10.250;2023-06-26T02:57:13;12.45;;;11.27;;
8040;SDS011;4063;48.140;10.250;2023-06-26T02:59:39;14.43;;;11.32;;
8040;SDS011;4063;48.140;10.250;2023-06-26T03:02:05;13.50;;;12.10;;
8040;SDS011;4063;48.140;10.250;2023-06-26T03:04:31;12.80;;;11.60;;
8040;SDS011;4063;48.140;10.250;2023-06-26T03:07:01;12.85;;;11.75;;
8040;SDS011;4063;48.140;10.250;2023-06-26T03:09:27;13.13;;;11.93;;
8040;SDS011;4063;48.140;10.250;2023-06-26T03:11:53;12.77;;;11.57;;
8040;SDS011;4063;48.140;10.250;2023-06-26T03:14:20;12.50;;;11.25;;
8040;SDS011;4063;48.140;10.250;2023-06-26T03:16:46;13.10;;;11.90;;
8040;SDS011;4063;48.140;10.250;2023-06-26T03:19:12;13.45;;;12.25;;
8040;SDS011;4063;48.140;10.250;2023-06-26T03:21:38;12.85;;;11.70;;
8040;SDS011;4063;48.140;10.250;2023-06-26T03:24:04;13.00;;;11.85;;
8040;SDS011;4063;48.140;10.250;2023-06-26T03:26:30;13.98;;;12.77;;
8040;SDS011;4063;48.140;10.250;2023-06-26T03:28:57;12.93;;;11.82;;
8040;SDS011;4063;48.140;10.250;2023-06-26T03:31:23;12.13;;;11.02;;
8040;SDS011;4063;48.140;10.250;2023-06-26T03:33:49;12.48;;;11.27;;
8040;SDS011;4063;48.140;10.250;2023-06-26T03:36:15;12.55;;;11.45;;
8040;SDS011;4063;48.140;10.250;2023-06-26T03:38:41;13.25;;;11.90;;
8040;SDS011;4063;48.140;10.250;2023-06-26T03:41:07;13.15;;;11.95;;
8040;SDS011;4063;48.140;10.250;2023-06-26T03:43:33;12.68;;;10.80;;
8040;SDS011;4063;48.140;10.250;2023-06-26T03:45:59;11.68;;;10.63;;
8040;SDS011;4063;48.140;10.250;2023-06-26T03:48:25;13.55;;;12.15;;
8040;SDS011;4063;48.140;10.250;2023-06-26T03:50:52;11.95;;;10.80;;
8040;SDS011;4063;48.140;10.250;2023-06-26T03:53:18;12.73;;;11.45;;
8040;SDS011;4063;48.140;10.250;2023-06-26T03:55:44;12.57;;;10.38;;
8040;SDS011;4063;48.140;10.250;2023-06-26T03:58:10;12.02;;;10.93;;
8040;SDS011;4063;48.140;10.250;2023-06-26T04:00:36;12.38;;;11.07;;
8040;SDS011;4063;48.140;10.250;2023-06-26T04:03:02;12.02;;;10.93;;
8040;SDS011;4063;48.140;10.250;2023-06-26T04:05:29;12.25;;;11.15;;
8040;SDS011;4063;48.140;10.250;2023-06-26T04:07:55;13.30;;;11.90;;
8040;SDS011;4063;48.140;10.250;2023-06-26T04:10:21;12.10;;;11.00;;
8040;SDS011;4063;48.140;10.250;2023-06-26T04:12:47;12.05;;;10.95;;
8040;SDS011;4063;48.140;10.250;2023-06-26T04:15:13;12.35;;;11.07;;
8040;SDS011;4063;48.140;10.250;2023-06-26T04:17:39;12.55;;;11.25;;
8040;SDS011;4063;48.140;10.250;2023-06-26T04:20:05;12.27;;;11.15;;
8040;SDS011;4063;48.140;10.250;2023-06-26T04:22:32;13.82;;;12.43;;
8040;SDS011;4063;48.140;10.250;2023-06-26T04:25:00;13.18;;;11.20;;
8040;SDS011;4063;48.140;10.250;2023-06-26T04:27:26;11.98;;;10.77;;
8040;SDS011;4063;48.140;10.250;2023-06-26T04:29:52;11.55;;;10.50;;
8040;SDS011;4063;48.140;10.250;2023-06-26T04:32:18;12.18;;;11.02;;
8040;SDS011;4063;48.140;10.250;2023-06-26T04:34:44;12.57;;;11.48;;
8040;SDS011;4063;48.140;10.250;2023-06-26T04:37:10;11.65;;;10.48;;
8040;SDS011;4063;48.140;10.250;2023-06-26T04:39:36;12.43;;;10.82;;
8040;SDS011;4063;48.140;10.250;2023-06-26T04:42:03;12.38;;;11.18;;
8040;SDS011;4063;48.140;10.250;2023-06-26T04:44:30;11.70;;;10.60;;
8040;SDS011;4063;48.140;10.250;2023-06-26T04:46:56;12.88;;;11.60;;
8040;SDS011;4063;48.140;10.250;2023-06-26T04:49:22;11.85;;;10.75;;
8040;SDS011;4063;48.140;10.250;2023-06-26T04:51:48;12.57;;;11.38;;
8040;SDS011;4063;48.140;10.250;2023-06-26T04:54:16;11.45;;;10.45;;
8040;SDS011;4063;48.140;10.250;2023-06-26T04:56:42;10.77;;;9.75;;
8040;SDS011;4063;48.140;10.250;2023-06-26T04:59:08;11.15;;;10.05;;
8040;SDS011;4063;48.140;10.250;2023-06-26T05:01:38;11.00;;;10.00;;
8040;SDS011;4063;48.140;10.250;2023-06-26T05:04:04;12.02;;;10.05;;
8040;SDS011;4063;48.140;10.250;2023-06-26T05:06:30;10.45;;;9.45;;
8040;SDS011;4063;48.140;10.250;2023-06-26T05:08:56;10.13;;;9.15;;
8040;SDS011;4063;48.140;10.250;2023-06-26T05:11:22;9.60;;;8.70;;
8040;SDS011;4063;48.140;10.250;2023-06-26T05:13:49;9.50;;;8.70;;
8040;SDS011;4063;48.140;10.250;2023-06-26T05:16:15;10.10;;;9.23;;
8040;SDS011;4063;48.140;10.250;2023-06-26T05:18:41;9.57;;;8.60;;
8040;SDS011;4063;48.140;10.250;2023-06-26T05:21:07;9.35;;;8.55;;
8040;SDS011;4063;48.140;10.250;2023-06-26T05:23:33;9.27;;;8.38;;
8040;SDS011;4063;48.140;10.250;2023-06-26T05:26:00;10.02;;;9.23;;
8040;SDS011;4063;48.140;10.250;2023-06-26T05:28:27;9.48;;;8.55;;
8040;SDS011;4063;48.140;10.250;2023-06-26T05:30:53;13.93;;;8.93;;
8040;SDS011;4063;48.140;10.250;2023-06-26T05:33:21;9.73;;;8.82;;
8040;SDS011;4063;48.140;10.250;2023-06-26T05:35:47;10.23;;;9.20;;
8040;SDS011;4063;48.140;10.250;2023-06-26T05:38:14;10.23;;;9.18;;
8040;SDS011;4063;48.140;10.250;2023-06-26T05:40:40;9.80;;;8.68;;
8040;SDS011;4063;48.140;10.250;2023-06-26T05:43:06;8.70;;;7.90;;
8040;SDS011;4063;48.140;10.250;2023-06-26T05:45:32;8.73;;;7.93;;
8040;SDS011;4063;48.140;10.250;2023-06-26T05:47:58;9.45;;;8.40;;
8040;SDS011;4063;48.140;10.250;2023-06-26T05:50:25;8.27;;;7.57;;
8040;SDS011;4063;48.140;10.250;2023-06-26T05:52:51;8.20;;;7.07;;
8040;SDS011;4063;48.140;10.250;2023-06-26T05:55:17;8.52;;;7.70;;
8040;SDS011;4063;48.140;10.250;2023-06-26T05:57:43;7.55;;;6.88;;
8040;SDS011;4063;48.140;10.250;2023-06-26T06:00:11;9.85;;;6.97;;
8040;SDS011;4063;48.140;10.250;2023-06-26T06:02:37;7.68;;;6.97;;
8040;SDS011;4063;48.140;10.250;2023-06-26T06:05:04;8.30;;;7.50;;
8040;SDS011;4063;48.140;10.250;2023-06-26T06:07:33;8.90;;;8.00;;
8040;SDS011;4063;48.140;10.250;2023-06-26T06:10:00;8.52;;;7.32;;
8040;SDS011;4063;48.140;10.250;2023-06-26T06:12:26;7.95;;;7.10;;
8040;SDS011;4063;48.140;10.250;2023-06-26T06:14:52;11.45;;;6.88;;
8040;SDS011;4063;48.140;10.250;2023-06-26T06:17:19;8.93;;;7.63;;
8040;SDS011;4063;48.140;10.250;2023-06-26T06:19:45;7.60;;;6.85;;
8040;SDS011;4063;48.140;10.250;2023-06-26T06:22:11;7.60;;;6.80;;
8040;SDS011;4063;48.140;10.250;2023-06-26T06:24:38;8.23;;;7.30;;
8040;SDS011;4063;48.140;10.250;2023-06-26T06:27:04;7.43;;;6.75;;
8040;SDS011;4063;48.140;10.250;2023-06-26T06:29:30;8.95;;;7.03;;
8040;SDS011;4063;48.140;10.250;2023-06-26T06:31:56;9.35;;;7.70;;
8040;SDS011;4063;48.140;10.250;2023-06-26T06:34:22;9.07;;;7.00;;
8040;SDS011;4063;48.140;10.250;2023-06-26T06:36:48;7.57;;;6.90;;
8040;SDS011;4063;48.140;10.250;2023-06-26T06:39:15;8.52;;;7.03;;
8040;SDS011;4063;48.140;10.250;2023-06-26T06:41:42;7.22;;;6.60;;
8040;SDS011;4063;48.140;10.250;2023-06-26T06:44:08;7.55;;;6.85;;
8040;SDS011;4063;48.140;10.250;2023-06-26T06:46:34;7.95;;;6.10;;
8040;SDS011;4063;48.140;10.250;2023-06-26T06:49:00;7.47;;;6.78;;
8040;SDS011;4063;48.140;10.250;2023-06-26T06:51:26;7.97;;;7.20;;
8040;SDS011;4063;48.140;10.250;2023-06-26T06:53:52;7.40;;;6.70;;
8040;SDS011;4063;48.140;10.250;2023-06-26T06:56:18;10.48;;;6.78;;
8040;SDS011;4063;48.140;10.250;2023-06-26T06:58:44;7.18;;;6.47;;
8040;SDS011;4063;48.140;10.250;2023-06-26T07:01:12;7.38;;;6.68;;
8040;SDS011;4063;48.140;10.250;2023-06-26T07:03:38;6.80;;;6.20;;
8040;SDS011;4063;48.140;10.250;2023-06-26T07:06:04;7.72;;;6.07;;
8040;SDS011;4063;48.140;10.250;2023-06-26T07:08:30;8.48;;;6.47;;
8040;SDS011;4063;48.140;10.250;2023-06-26T07:10:57;6.80;;;5.93;;
8040;SDS011;4063;48.140;10.250;2023-06-26T07:13:23;7.07;;;6.20;;
8040;SDS011;4063;48.140;10.250;2023-06-26T07:15:49;6.63;;;6.05;;
8040;SDS011;4063;48.140;10.250;2023-06-26T07:18:15;6.82;;;6.22;;
8040;SDS011;4063;48.140;10.250;2023-06-26T07:20:41;6.57;;;5.97;;
8040;SDS011;4063;48.140;10.250;2023-06-26T07:23:07;7.00;;;6.30;;
8040;SDS011;4063;48.140;10.250;2023-06-26T07:25:33;6.20;;;5.68;;
8040;SDS011;4063;48.140;10.250;2023-06-26T07:27:59;6.85;;;6.10;;
8040;SDS011;4063;48.140;10.250;2023-06-26T07:30:26;6.55;;;5.95;;
8040;SDS011;4063;48.140;10.250;2023-06-26T07:32:52;6.75;;;5.40;;
8040;SDS011;4063;48.140;10.250;2023-06-26T07:35:18;9.93;;;5.90;;
8040;SDS011;4063;48.140;10.250;2023-06-26T07:37:44;6.10;;;5.60;;
8040;SDS011;4063;48.140;10.250;2023-06-26T07:40:10;9.25;;;5.93;;
8040;SDS011;4063;48.140;10.250;2023-06-26T07:42:37;6.28;;;5.78;;
8040;SDS011;4063;48.140;10.250;2023-06-26T07:45:04;6.68;;;5.78;;
8040;SDS011;4063;48.140;10.250;2023-06-26T07:47:35;5.80;;;5.40;;
8040;SDS011;4063;48.140;10.250;2023-06-26T07:50:01;6.22;;;5.60;;
8040;SDS011;4063;48.140;10.250;2023-06-26T07:52:28;6.35;;;5.78;;
8040;SDS011;4063;48.140;10.250;2023-06-26T07:54:55;6.93;;;6.22;;
8040;SDS011;4063;48.140;10.250;2023-06-26T07:57:21;6.18;;;5.68;;
8040;SDS011;4063;48.140;10.250;2023-06-26T07:59:47;8.75;;;5.90;;
8040;SDS011;4063;48.140;10.250;2023-06-26T08:02:12;6.72;;;6.10;;
8040;SDS011;4063;48.140;10.250;2023-06-26T08:04:38;6.07;;;5.47;;
8040;SDS011;4063;48.140;10.250;2023-06-26T08:07:04;6.45;;;5.65;;
8040;SDS011;4063;48.140;10.250;2023-06-26T08:09:31;7.32;;;5.45;;
8040;SDS011;4063;48.140;10.250;2023-06-26T08:11:57;6.40;;;5.85;;
8040;SDS011;4063;48.140;10.250;2023-06-26T08:14:23;6.45;;;5.50;;
8040;SDS011;4063;48.140;10.250;2023-06-26T08:16:49;5.93;;;5.20;;
8040;SDS011;4063;48.140;10.250;2023-06-26T08:19:16;6.93;;;5.40;;
8040;SDS011;4063;48.140;10.250;2023-06-26T08:21:42;8.07;;;5.72;;
8040;SDS011;4063;48.140;10.250;2023-06-26T08:24:08;7.80;;;5.60;;
8040;SDS011;4063;48.140;10.250;2023-06-26T08:26:35;8.25;;;5.78;;
8040;SDS011;4063;48.140;10.250;2023-06-26T08:29:01;7.60;;;5.70;;
8040;SDS011;4063;48.140;10.250;2023-06-26T08:31:32;5.50;;;5.07;;
8040;SDS011;4063;48.140;10.250;2023-06-26T08:33:59;8.70;;;5.72;;
8040;SDS011;4063;48.140;10.250;2023-06-26T08:36:25;8.43;;;5.10;;
8040;SDS011;4063;48.140;10.250;2023-06-26T08:38:51;6.47;;;5.57;;
8040;SDS011;4063;48.140;10.250;2023-06-26T08:41:17;6.07;;;5.40;;
8040;SDS011;4063;48.140;10.250;2023-06-26T08:43:43;6.47;;;5.85;;
8040;SDS011;4063;48.140;10.250;2023-06-26T08:46:09;11.70;;;5.38;;
8040;SDS011;4063;48.140;10.250;2023-06-26T08:48:35;8.70;;;5.22;;
8040;SDS011;4063;48.140;10.250;2023-06-26T08:51:05;5.40;;;4.90;;
8040;SDS011;4063;48.140;10.250;2023-06-26T08:53:36;5.75;;;5.25;;
8040;SDS011;4063;48.140;10.250;2023-06-26T08:56:05;5.82;;;5.10;;
8040;SDS011;4063;48.140;10.250;2023-06-26T08:58:31;8.48;;;6.35;;
8040;SDS011;4063;48.140;10.250;2023-06-26T09:00:57;5.53;;;5.03;;
8040;SDS011;4063;48.140;10.250;2023-06-26T09:03:23;5.22;;;4.72;;
8040;SDS011;4063;48.140;10.250;2023-06-26T09:05:50;5.43;;;4.93;;
8040;SDS011;4063;48.140;10.250;2023-06-26T09:08:16;5.70;;;5.03;;
8040;SDS011;4063;48.140;10.250;2023-06-26T09:10:42;7.22;;;4.75;;
8040;SDS011;4063;48.140;10.250;2023-06-26T09:13:08;5.50;;;5.00;;
8040;SDS011;4063;48.140;10.250;2023-06-26T09:15:38;6.93;;;4.95;;
8040;SDS011;4063;48.140;10.250;2023-06-26T09:18:04;9.88;;;7.90;;
8040;SDS011;4063;48.140;10.250;2023-06-26T09:20:30;6.15;;;4.70;;
8040;SDS011;4063;48.140;10.250;2023-06-26T09:23:00;6.57;;;4.72;;
8040;SDS011;4063;48.140;10.250;2023-06-26T09:25:27;5.90;;;4.75;;
8040;SDS011;4063;48.140;10.250;2023-06-26T09:27:53;4.95;;;4.55;;
8040;SDS011;4063;48.140;10.250;2023-06-26T09:30:19;7.43;;;4.63;;
8040;SDS011;4063;48.140;10.250;2023-06-26T09:32:48;5.05;;;4.65;;
8040;SDS011;4063;48.140;10.250;2023-06-26T09:35:16;5.43;;;4.93;;
8040;SDS011;4063;48.140;10.250;2023-06-26T09:37:42;5.15;;;4.75;;
8040;SDS011;4063;48.140;10.250;2023-06-26T09:40:08;8.20;;;6.80;;
8040;SDS011;4063;48.140;10.250;2023-06-26T09:42:35;6.25;;;5.65;;
8040;SDS011;4063;48.140;10.250;2023-06-26T09:45:01;5.00;;;4.60;;
8040;SDS011;4063;48.140;10.250;2023-06-26T09:47:29;6.15;;;5.65;;
8040;SDS011;4063;48.140;10.250;2023-06-26T09:49:55;11.07;;;4.60;;
8040;SDS011;4063;48.140;10.250;2023-06-26T09:52:21;7.10;;;5.82;;
8040;SDS011;4063;48.140;10.250;2023-06-26T09:54:51;7.80;;;5.65;;
8040;SDS011;4063;48.140;10.250;2023-06-26T09:57:34;7.50;;;6.20;;
8040;SDS011;4063;48.140;10.250;2023-06-26T10:00:00;5.15;;;4.65;;
8040;SDS011;4063;48.140;10.250;2023-06-26T10:02:26;8.55;;;5.10;;
8040;SDS011;4063;48.140;10.250;2023-06-26T10:04:52;5.43;;;5.00;;
8040;SDS011;4063;48.140;10.250;2023-06-26T10:07:18;5.13;;;4.72;;
8040;SDS011;4063;48.140;10.250;2023-06-26T10:09:45;4.85;;;4.45;;
8040;SDS011;4063;48.140;10.250;2023-06-26T10:12:22;7.93;;;5.35;;
8040;SDS011;4063;48.140;10.250;2023-06-26T10:14:50;4.95;;;4.55;;
8040;SDS011;4063;48.140;10.250;2023-06-26T10:17:17;5.65;;;4.85;;
8040;SDS011;4063;48.140;10.250;2023-06-26T10:19:45;5.20;;;4.63;;
8040;SDS011;4063;48.140;10.250;2023-06-26T10:22:14;5.40;;;4.88;;
8040;SDS011;4063;48.140;10.250;2023-06-26T10:24:41;12.02;;;9.88;;
8040;SDS011;4063;48.140;10.250;2023-06-26T10:27:14;5.38;;;4.97;;
8040;SDS011;4063;48.140;10.250;2023-06-26T10:29:41;5.95;;;5.43;;
8040;SDS011;4063;48.140;10.250;2023-06-26T10:32:10;5.45;;;5.00;;
8040;SDS011;4063;48.140;10.250;2023-06-26T10:34:37;5.85;;;4.57;;
8040;SDS011;4063;48.140;10.250;2023-06-26T10:37:04;6.10;;;5.50;;
8040;SDS011;4063;48.140;10.250;2023-06-26T10:42:12;6.35;;;5.75;;
8040;SDS011;4063;48.140;10.250;2023-06-26T10:44:40;8.32;;;6.78;;
8040;SDS011;4063;48.140;10.250;2023-06-26T10:47:10;5.68;;;5.03;;
8040;SDS011;4063;48.140;10.250;2023-06-26T10:49:37;8.40;;;6.72;;
8040;SDS011;4063;48.140;10.250;2023-06-26T10:52:07;7.55;;;5.32;;
8040;SDS011;4063;48.140;10.250;2023-06-26T10:54:33;7.53;;;4.68;;
8040;SDS011;4063;48.140;10.250;2023-06-26T10:56:59;5.30;;;4.82;;
8040;SDS011;4063;48.140;10.250;2023-06-26T10:59:27;6.30;;;4.60;;
8040;SDS011;4063;48.140;10.250;2023-06-26T11:04:56;5.50;;;5.00;;
8040;SDS011;4063;48.140;10.250;2023-06-26T11:07:21;5.07;;;4.68;;
8040;SDS011;4063;48.140;10.250;2023-06-26T11:12:35;4.57;;;4.18;;
8040;SDS011;4063;48.140;10.250;2023-06-26T11:15:02;6.65;;;4.60;;
8040;SDS011;4063;48.140;10.250;2023-06-26T11:17:29;4.93;;;4.25;;
8040;SDS011;4063;48.140;10.250;2023-06-26T11:19:56;4.88;;;4.47;;
8040;SDS011;4063;48.140;10.250;2023-06-26T11:22:22;4.53;;;4.18;;
8040;SDS011;4063;48.140;10.250;2023-06-26T11:24:51;6.30;;;4.55;;
8040;SDS011;4063;48.140;10.250;2023-06-26T11:27:18;5.22;;;4.82;;
8040;SDS011;4063;48.140;10.250;2023-06-26T11:29:48;7.72;;;6.93;;
8040;SDS011;4063;48.140;10.250;2023-06-26T11:32:14;11.38;;;8.32;;
8040;SDS011;4063;48.140;10.250;2023-06-26T11:34:40;7.85;;;6.00;;
8040;SDS011;4063;48.140;10.250;2023-06-26T11:37:08;6.18;;;5.00;;
8040;SDS011;4063;48.140;10.250;2023-06-26T11:39:34;6.65;;;5.13;;
8040;SDS011;4063;48.140;10.250;2023-06-26T11:42:02;4.55;;;4.15;;
8040;SDS011;4063;48.140;10.250;2023-06-26T11:44:31;5.45;;;5.00;;
8040;SDS011;4063;48.140;10.250;2023-06-26T11:46:57;5.32;;;4.88;;
8040;SDS011;4063;48.140;10.250;2023-06-26T11:49:23;4.88;;;4.47;;
8040;SDS011;4063;48.140;10.250;2023-06-26T11:51:52;5.40;;;4.90;;
8040;SDS011;4063;48.140;10.250;2023-06-26T11:54:23;5.45;;;4.78;;
8040;SDS011;4063;48.140;10.250;2023-06-26T11:56:53;7.15;;;4.75;;
8040;SDS011;4063;48.140;10.250;2023-06-26T11:59:21;5.20;;;4.60;;
8040;SDS011;4063;48.140;10.250;2023-06-26T12:01:47;6.47;;;5.88;;
8040;SDS011;4063;48.140;10.250;2023-06-26T12:04:16;5.50;;;5.00;;
8040;SDS011;4063;48.140;10.250;2023-06-26T12:06:52;4.90;;;4.50;;
8040;SDS011;4063;48.140;10.250;2023-06-26T12:09:22;5.10;;;4.70;;
8040;SDS011;4063;48.140;10.250;2023-06-26T12:11:50;5.72;;;4.88;;
8040;SDS011;4063;48.140;10.250;2023-06-26T12:14:17;5.53;;;5.03;;
8040;SDS011;4063;48.140;10.250;2023-06-26T12:16:45;6.20;;;5.28;;
8040;SDS011;4063;48.140;10.250;2023-06-26T12:19:11;7.43;;;6.72;;
8040;SDS011;4063;48.140;10.250;2023-06-26T12:24:07;7.88;;;6.60;;
8040;SDS011;4063;48.140;10.250;2023-06-26T12:26:33;7.38;;;5.38;;
8040;SDS011;4063;48.140;10.250;2023-06-26T12:29:03;7.85;;;6.25;;
8040;SDS011;4063;48.140;10.250;2023-06-26T12:31:29;6.10;;;5.60;;
8040;SDS011;4063;48.140;10.250;2023-06-26T12:33:57;6.97;;;5.90;;
8040;SDS011;4063;48.140;10.250;2023-06-26T12:36:23;5.20;;;4.80;;
8040;SDS011;4063;48.140;10.250;2023-06-26T12:38:49;6.78;;;4.65;;
8040;SDS011;4063;48.140;10.250;2023-06-26T12:41:15;5.50;;;4.80;;
8040;SDS011;4063;48.140;10.250;2023-06-26T12:43:42;6.38;;;5.78;;
8040;SDS011;4063;48.140;10.250;2023-06-26T12:46:08;5.45;;;4.18;;
8040;SDS011;4063;48.140;10.250;2023-06-26T12:48:41;4.93;;;4.50;;
8040;SDS011;4063;48.140;10.250;2023-06-26T12:51:14;5.45;;;5.00;;
8040;SDS011;4063;48.140;10.250;2023-06-26T12:53:41;5.22;;;4.82;;
8040;SDS011;4063;48.140;10.250;2023-06-26T12:56:07;9.07;;;5.45;;
8040;SDS011;4063;48.140;10.250;2023-06-26T12:58:34;7.25;;;6.25;;
8040;SDS011;4063;48.140;10.250;2023-06-26T13:01:02;6.88;;;6.03;;
8040;SDS011;4063;48.140;10.250;2023-06-26T13:03:29;5.05;;;4.30;;
8040;SDS011;4063;48.140;10.250;2023-06-26T13:05:55;5.93;;;5.32;;
8040;SDS011;4063;48.140;10.250;2023-06-26T13:08:21;6.82;;;5.47;;
8040;SDS011;4063;48.140;10.250;2023-06-26T13:10:47;4.95;;;4.53;;
8040;SDS011;4063;48.140;10.250;2023-06-26T13:13:13;5.57;;;4.70;;
8040;SDS011;4063;48.140;10.250;2023-06-26T13:15:39;5.10;;;4.60;;
8040;SDS011;4063;48.140;10.250;2023-06-26T13:18:05;5.28;;;4.80;;
8040;SDS011;4063;48.140;10.250;2023-06-26T13:20:31;5.88;;;4.97;;
8040;SDS011;4063;48.140;10.250;2023-06-26T13:22:57;5.75;;;5.25;;
8040;SDS011;4063;48.140;10.250;2023-06-26T13:25:23;8.18;;;6.03;;
8040;SDS011;4063;48.140;10.250;2023-06-26T13:27:49;6.22;;;5.20;;
8040;SDS011;4063;48.140;10.250;2023-06-26T13:30:15;5.88;;;5.32;;
8040;SDS011;4063;48.140;10.250;2023-06-26T13:32:41;5.30;;;4.75;;
8040;SDS011;4063;48.140;10.250;2023-06-26T13:35:07;6.15;;;5.10;;
8040;SDS011;4063;48.140;10.250;2023-06-26T13:37:34;7.00;;;5.40;;
8040;SDS011;4063;48.140;10.250;2023-06-26T13:40:01;6.28;;;5.53;;
8040;SDS011;4063;48.140;10.250;2023-06-26T13:42:27;6.97;;;5.20;;
8040;SDS011;4063;48.140;10.250;2023-06-26T13:44:53;5.68;;;5.18;;
8040;SDS011;4063;48.140;10.250;2023-06-26T13:47:20;10.75;;;6.18;;
8040;SDS011;4063;48.140;10.250;2023-06-26T13:49:46;8.63;;;6.38;;
8040;SDS011;4063;48.140;10.250;2023-06-26T13:52:12;13.90;;;9.45;;
8040;SDS011;4063;48.140;10.250;2023-06-26T13:54:38;11.55;;;9.23;;
8040;SDS011;4063;48.140;10.250;2023-06-26T13:57:05;8.68;;;7.22;;
8040;SDS011;4063;48.140;10.250;2023-06-26T13:59:31;7.07;;;6.43;;
8040;SDS011;4063;48.140;10.250;2023-06-26T14:01:57;11.55;;;7.32;;
8040;SDS011;4063;48.140;10.250;2023-06-26T14:04:24;8.48;;;7.68;;
8040;SDS011;4063;48.140;10.250;2023-06-26T14:06:50;8.63;;;7.47;;
8040;SDS011;4063;48.140;10.250;2023-06-26T14:09:16;8.52;;;6.15;;
8040;SDS011;4063;48.140;10.250;2023-06-26T14:11:42;15.25;;;5.40;;
8040;SDS011;4063;48.140;10.250;2023-06-26T14:14:08;8.60;;;5.53;;
8040;SDS011;4063;48.140;10.250;2023-06-26T14:16:35;7.53;;;4.90;;
8040;SDS011;4063;48.140;10.250;2023-06-26T14:19:00;6.32;;;4.78;;
8040;SDS011;4063;48.140;10.250;2023-06-26T14:21:27;4.93;;;4.43;;
8040;SDS011;4063;48.140;10.250;2023-06-26T14:23:54;4.88;;;4.50;;
8040;SDS011;4063;48.140;10.250;2023-06-26T14:26:20;9.35;;;4.93;;
8040;SDS011;4063;48.140;10.250;2023-06-26T14:28:46;5.25;;;4.72;;
8040;SDS011;4063;48.140;10.250;2023-06-26T14:31:12;5.00;;;4.60;;
8040;SDS011;4063;48.140;10.250;2023-06-26T14:33:38;7.88;;;4.57;;
8040;SDS011;4063;48.140;10.250;2023-06-26T14:36:04;5.18;;;4.68;;
8040;SDS011;4063;48.140;10.250;2023-06-26T14:38:30;5.72;;;5.22;;
8040;SDS011;4063;48.140;10.250;2023-06-26T14:40:56;5.53;;;5.03;;
8040;SDS011;4063;48.140;10.250;2023-06-26T14:43:22;7.40;;;4.80;;
8040;SDS011;4063;48.140;10.250;2023-06-26T14:45:49;5.03;;;4.63;;
8040;SDS011;4063;48.140;10.250;2023-06-26T14:48:15;5.35;;;4.75;;
8040;SDS011;4063;48.140;10.250;2023-06-26T14:50:41;4.82;;;4.43;;
8040;SDS011;4063;48.140;10.250;2023-06-26T14:53:07;12.43;;;4.88;;
8040;SDS011;4063;48.140;10.250;2023-06-26T14:55:33;5.80;;;4.88;;
8040;SDS011;4063;48.140;10.250;2023-06-26T14:57:59;5.13;;;4.38;;
8040;SDS011;4063;48.140;10.250;2023-06-26T15:00:25;5.78;;;5.18;;
8040;SDS011;4063;48.140;10.250;2023-06-26T15:02:52;5.13;;;4.72;;